Time;durP1;ratioP1;P1;durP2;ratioP2;P2;SDS_P1;SDS_P2;PMS_P1;PMS_P2;Temp;Humidity;BMP_temperature;BMP_pressure;BME280_temperature;BME280_humidity;BME280_pressure;Samples;Min_cycle;Max_cycle;Signal;HPM_P1;HPM_P2
2023/01/30 00:01:35;;;;;;;10.23;4.38;;;;;;;1.21;58.88;101399.13;6316371;22;20055;-80
2023/01/30 00:04:02;;;;;;;10.57;4.78;;;;;;;1.23;59.05;101418.44;6295554;22;20010;-84
2023/01/30 00:06:32;;;;;;;9.15;4.32;;;;;;;1.05;59.41;101407.91;6335064;22;20011;-84
2023/01/30 00:08:58;;;;;;;9.10;4.45;;;;;;;0.80;60.02;101396.91;6305665;22;20002;-84
2023/01/30 00:11:32;;;;;;;8.87;4.27;;;;;;;0.80;60.29;101407.50;6285217;22;20033;-83
2023/01/30 00:13:57;;;;;;;11.20;4.43;;;;;;;0.96;59.79;101408.41;6289962;22;20310;-83
2023/01/30 00:16:23;;;;;;;9.85;4.80;;;;;;;0.98;60.17;101417.13;6319974;22;19999;-84
2023/01/30 00:18:50;;;;;;;9.38;4.82;;;;;;;0.96;59.98;101421.63;6286359;22;20003;-82
2023/01/30 00:21:16;;;;;;;9.20;4.32;;;;;;;0.83;59.99;101408.16;6310858;22;20389;-84
2023/01/30 00:23:47;;;;;;;10.15;4.72;;;;;;;0.78;60.17;101401.41;6285936;22;20010;-84
2023/01/30 00:26:19;;;;;;;8.77;4.63;;;;;;;0.60;60.19;101372.31;6311942;22;20044;-82
2023/01/30 00:28:45;;;;;;;10.88;5.00;;;;;;;0.70;60.57;101377.13;6341066;22;20085;-83
2023/01/30 00:31:12;;;;;;;10.40;4.43;;;;;;;1.11;60.14;101411.16;6283598;22;20081;-83
2023/01/30 00:33:40;;;;;;;9.25;4.43;;;;;;;0.86;60.36;101395.72;6316734;22;20064;-83
2023/01/30 00:36:35;;;;;;;9.68;4.70;;;;;;;1.18;60.09;101404.59;6290818;22;20399;-85
2023/01/30 00:39:02;;;;;;;10.02;4.38;;;;;;;0.97;59.96;101374.81;6340784;22;20082;-82
2023/01/30 00:47:04;;;;;;;8.57;4.28;;;;;;;1.07;60.10;101391.06;6349202;22;20006;-82
2023/01/30 00:47:05;;;;;;;9.73;4.78;;;;;;;1.23;59.26;101391.97;6335623;22;20103;-83
2023/01/30 00:49:31;;;;;;;8.27;4.30;;;;;;;1.21;59.36;101401.78;6308732;22;20488;-82
2023/01/30 00:51:57;;;;;;;10.98;4.43;;;;;;;1.21;59.10;101386.72;6333036;22;20006;-84
2023/01/30 00:54:26;;;;;;;8.90;4.18;;;;;;;1.13;58.83;101374.88;6307231;22;19998;-85
2023/01/30 00:56:51;;;;;;;8.85;4.60;;;;;;;1.24;58.67;101388.34;6281014;22;20098;-83
2023/01/30 00:59:17;;;;;;;9.80;4.30;;;;;;;1.26;58.65;101387.38;6280394;22;20435;-83
2023/01/30 01:01:43;;;;;;;10.47;4.30;;;;;;;1.22;58.66;101395.56;6333372;22;20007;-85
2023/01/30 01:04:09;;;;;;;10.90;4.68;;;;;;;1.20;58.58;101392.13;6333429;22;20311;-82
2023/01/30 01:06:36;;;;;;;9.23;4.38;;;;;;;1.33;58.15;101395.81;6280696;22;20037;-81
2023/01/30 01:09:03;;;;;;;8.95;4.18;;;;;;;1.26;58.06;101371.47;6307461;22;20041;-84
2023/01/30 01:11:28;;;;;;;8.07;4.07;;;;;;;1.26;58.39;101392.66;6306942;22;20096;-81
2023/01/30 01:13:56;;;;;;;9.33;4.40;;;;;;;1.01;58.97;101377.22;6306125;22;20457;-82
2023/01/30 01:16:21;;;;;;;9.77;4.45;;;;;;;1.05;58.87;101372.59;6275403;22;20010;-83
2023/01/30 01:18:48;;;;;;;;;;;;;;;1.14;59.07;101385.34;6309133;22;20022;-82
2023/01/30 01:21:14;;;;;;;7.97;3.88;;;;;;;1.20;58.51;101370.94;6282416;22;19989;-83
2023/01/30 01:23:40;;;;;;;8.70;3.88;;;;;;;1.26;58.55;101376.78;6281345;22;20007;-85
2023/01/30 01:26:06;;;;;;;8.00;3.78;;;;;;;1.21;58.50;101370.00;6335121;22;20033;-84
2023/01/30 01:28:32;;;;;;;12.20;4.57;;;;;;;1.35;58.50;101378.03;6307507;22;20331;-85
2023/01/30 01:30:58;;;;;;;8.55;4.15;;;;;;;1.30;58.54;101377.44;6334540;22;20451;-81
2023/01/30 01:33:27;;;;;;;10.88;4.72;;;;;;;1.24;58.91;101362.75;6306098;22;20007;-84
2023/01/30 01:36:00;;;;;;;11.15;4.65;;;;;;;1.14;59.21;101371.25;6332235;22;20030;-84
2023/01/30 01:38:25;;;;;;;9.73;4.38;;;;;;;1.04;59.30;101358.50;6283960;22;20079;-83
2023/01/30 01:41:01;;;;;;;10.40;4.43;;;;;;;1.09;59.26;101376.81;6309422;22;20393;-83
2023/01/30 01:43:27;;;;;;;12.52;6.45;;;;;;;1.09;59.85;101378.59;6349419;22;20235;-83
2023/01/30 01:46:20;;;;;;;9.88;4.57;;;;;;;1.16;59.25;101367.59;6310481;22;20003;-82
2023/01/30 01:48:52;;;;;;;10.27;4.28;;;;;;;1.18;59.05;101375.47;6313070;22;20003;-83
2023/01/30 01:51:41;;;;;;;13.73;6.78;;;;;;;1.00;59.95;101364.91;6292990;22;20030;-82
2023/01/30 01:54:13;;;;;;;12.27;5.95;;;;;;;1.20;59.65;101376.25;6314225;22;20379;-84
2023/01/30 01:56:42;;;;;;;7.35;3.95;;;;;;;1.20;59.37;101363.00;6290603;22;20355;-84
2023/01/30 01:59:11;;;;;;;10.02;5.05;;;;;;;1.12;58.99;101363.38;6321862;22;20353;-82
2023/01/30 02:01:37;;;;;;;9.30;4.63;;;;;;;1.00;59.30;101359.63;6307434;22;20446;-82
2023/01/30 02:04:05;;;;;;;10.73;5.03;;;;;;;0.84;60.11;101371.97;6282316;22;20003;-82
2023/01/30 02:06:31;;;;;;;11.02;4.60;;;;;;;0.99;59.97;101357.91;6307859;22;19995;-81
2023/01/30 02:08:59;;;;;;;9.50;4.60;;;;;;;0.91;60.36;101369.84;6308000;22;20467;-83
2023/01/30 02:11:29;;;;;;;10.48;5.03;;;;;;;0.79;61.05;101366.06;6283300;22;20045;-80
2023/01/30 02:13:54;;;;;;;10.15;4.88;;;;;;;0.76;60.96;101342.41;6308277;22;20056;-83
2023/01/30 02:16:22;;;;;;;9.77;4.70;;;;;;;0.94;60.59;101359.13;6279442;22;20003;-84
2023/01/30 02:18:53;;;;;;;8.85;4.13;;;;;;;0.84;60.85;101361.38;6300946;22;20382;-86
2023/01/30 02:21:50;;;;;;;9.27;4.35;;;;;;;0.95;60.83;101366.09;6301109;22;20010;-84
2023/01/30 02:24:39;;;;;;;9.60;3.95;;;;;;;1.00;60.99;101364.06;6327312;22;20018;-83
2023/01/30 02:27:34;;;;;;;10.05;4.45;;;;;;;0.82;61.48;101344.75;6300637;22;20002;-83
2023/01/30 02:30:21;;;;;;;12.30;4.03;;;;;;;0.63;63.82;101364.22;6327296;22;20003;-84
2023/01/30 02:32:58;;;;;;;10.15;4.60;;;;;;;0.48;64.80;101341.19;6327897;22;20003;-83
2023/01/30 02:35:45;;;;;;;10.50;4.15;;;;;;;0.68;65.17;101357.81;6327475;22;20015;-84
2023/01/30 02:38:32;;;;;;;9.43;4.72;;;;;;;0.72;65.38;101354.94;6278147;22;20132;-82
2023/01/30 02:41:32;;;;;;;10.35;4.65;;;;;;;0.72;65.89;101356.72;6301780;22;20007;-82
2023/01/30 02:44:31;;;;;;;12.65;5.35;;;;;;;0.60;66.81;101351.13;6328190;22;19998;-82
2023/01/30 02:47:18;;;;;;;13.57;6.80;;;;;;;0.58;67.70;101358.28;6293091;22;20085;-86
2023/01/30 02:49:50;;;;;;;11.30;5.25;;;;;;;0.65;67.96;101350.91;6334975;22;20006;-85
2023/01/30 02:52:16;;;;;;;12.18;5.47;;;;;;;0.55;68.79;101355.81;6279590;22;20018;-84
2023/01/30 02:54:42;;;;;;;16.27;7.25;;;;;;;0.65;68.73;101360.63;6275576;22;20402;-83
2023/01/30 02:57:21;;;;;;;;;;;;;;;0.64;69.10;101362.44;6330188;22;20063;-85
2023/01/30 02:59:56;;;;;;;24.27;11.55;;;;;;;0.54;69.32;101351.47;6330946;22;19906;-87
2023/01/30 03:02:38;;;;;;;20.85;9.88;;;;;;;0.73;69.01;101361.94;6313263;22;20026;-84
2023/01/30 03:05:37;;;;;;;20.60;10.02;;;;;;;0.47;69.55;101339.50;6309455;22;20407;-85
2023/01/30 03:08:33;;;;;;;16.23;7.75;;;;;;;0.58;69.81;101353.00;6305899;22;20037;-82
2023/01/30 03:11:07;;;;;;;15.55;7.13;;;;;;;0.57;69.75;101361.88;6306480;22;20025;-82
2023/01/30 03:13:41;;;;;;;13.10;6.82;;;;;;;0.56;70.03;101360.19;6310220;22;20003;-82
2023/01/30 03:16:13;;;;;;;15.27;5.32;;;;;;;0.35;70.41;101350.69;6334984;22;20396;-81
2023/01/30 03:18:42;;;;;;;12.18;5.45;;;;;;;0.29;70.99;101359.81;6307686;22;20332;-83
2023/01/30 03:21:26;;;;;;;11.77;5.55;;;;;;;0.23;70.87;101353.97;6256899;22;20327;-82
2023/01/30 03:23:52;;;;;;;12.35;5.50;;;;;;;0.07;71.79;101352.09;6285858;22;20011;-84
2023/01/30 03:26:21;;;;;;;10.02;5.15;;;;;;;0.16;71.86;101366.63;6306755;22;20023;-84
2023/01/30 03:28:49;;;;;;;10.40;4.72;;;;;;;0.23;70.74;101335.44;6282355;22;20088;-84
2023/01/30 03:31:14;;;;;;;10.07;4.95;;;;;;;0.14;71.72;101357.91;6306901;22;20017;-83
2023/01/30 03:33:41;;;;;;;12.27;5.18;;;;;;;0.20;71.79;101354.97;6281833;22;20086;-83
2023/01/30 03:36:12;;;;;;;11.73;4.97;;;;;;;0.22;71.73;101349.63;6313254;22;20015;-82
2023/01/30 03:38:39;;;;;;;10.20;5.22;;;;;;;0.17;72.18;101353.34;6327455;22;20103;-83
2023/01/30 03:41:12;;;;;;;14.20;5.72;;;;;;;0.08;72.31;101345.03;6307117;22;20046;-82
2023/01/30 03:43:40;;;;;;;10.30;5.40;;;;;;;0.24;72.11;101343.31;6308575;22;20014;-82
2023/01/30 03:46:13;;;;;;;12.02;5.20;;;;;;;0.08;72.23;101322.06;6306275;22;20248;-80
2023/01/30 03:48:41;;;;;;;12.02;5.60;;;;;;;0.34;71.84;101349.00;6315910;22;20450;-82
2023/01/30 03:51:09;;;;;;;11.43;5.22;;;;;;;0.42;71.76;101346.78;6321168;22;20011;-83
2023/01/30 03:53:36;;;;;;;10.85;5.53;;;;;;;0.30;72.06;101345.63;6353139;22;20012;-81
2023/01/30 03:56:01;;;;;;;14.65;5.82;;;;;;;0.27;72.32;101326.44;6294763;22;20335;-82
2023/01/30 03:58:28;;;;;;;10.80;5.73;;;;;;;0.25;72.65;101329.16;6344788;22;20423;-82
2023/01/30 04:00:57;;;;;;;12.20;5.57;;;;;;;0.48;72.45;101335.06;6313150;22;20232;-84
2023/01/30 04:03:23;;;;;;;12.55;5.72;;;;;;;0.40;72.95;101333.66;6294665;22;20256;-87
2023/01/30 04:05:52;;;;;;;14.60;6.55;;;;;;;0.28;73.41;101330.78;6311564;22;20010;-86
2023/01/30 04:08:18;;;;;;;11.30;5.55;;;;;;;-0.01;74.20;101315.44;6282100;22;20072;-84
2023/01/30 04:10:46;;;;;;;14.20;6.73;;;;;;;0.03;74.43;101318.81;6280448;22;20400;-84
2023/01/30 04:13:12;;;;;;;13.65;6.03;;;;;;;0.12;74.21;101331.56;6305158;22;20252;-84
2023/01/30 04:15:37;;;;;;;12.57;6.32;;;;;;;0.20;74.27;101331.19;6285567;22;20111;-82
2023/01/30 04:18:03;;;;;;;12.70;5.83;;;;;;;0.17;74.00;101331.34;6304462;22;20043;-84
2023/01/30 04:20:29;;;;;;;13.55;6.28;;;;;;;0.15;74.25;101326.13;6276201;22;20232;-84
2023/01/30 04:22:55;;;;;;;11.83;5.43;;;;;;;0.27;74.28;101327.28;6301498;22;20428;-84
2023/01/30 04:25:23;;;;;;;10.73;5.45;;;;;;;0.08;74.73;101331.81;6277576;22;20011;-84
2023/01/30 04:27:49;;;;;;;13.00;5.95;;;;;;;0.05;74.94;101340.75;6329630;22;20003;-82
2023/01/30 04:30:17;;;;;;;12.82;5.95;;;;;;;0.07;75.21;101341.53;6300934;22;20015;-84
2023/01/30 04:32:44;;;;;;;12.25;6.00;;;;;;;0.00;75.70;101342.78;6275539;22;20742;-84
2023/01/30 04:35:12;;;;;;;13.40;6.47;;;;;;;-0.03;75.62;101330.53;6329826;22;20428;-83
2023/01/30 04:37:38;;;;;;;14.45;7.18;;;;;;;-0.27;76.92;101321.19;6285534;22;20064;-83
2023/01/30 04:40:04;;;;;;;15.85;7.30;;;;;;;0.02;76.67;101342.66;6333202;22;20565;-83
2023/01/30 04:42:31;;;;;;;16.23;6.85;;;;;;;-0.18;76.91;101344.53;6307024;22;20598;-83
2023/01/30 04:44:58;;;;;;;14.93;6.45;;;;;;;-0.02;76.47;101336.69;6283477;22;20087;-83
2023/01/30 04:47:26;;;;;;;12.77;5.97;;;;;;;0.02;76.52;101343.53;6331915;22;20078;-83
2023/01/30 04:49:51;;;;;;;13.50;6.20;;;;;;;-0.05;76.43;101339.47;6300281;22;20017;-84
2023/01/30 04:52:21;;;;;;;12.93;6.10;;;;;;;-0.32;76.61;101302.91;6276167;22;20002;-85
2023/01/30 04:54:55;;;;;;;14.32;6.15;;;;;;;-0.20;77.12;101341.09;6330712;22;20232;-88
2023/01/30 04:57:26;;;;;;;13.63;6.28;;;;;;;-0.16;76.92;101344.47;6257151;22;20063;-88
2023/01/30 04:59:54;;;;;;;12.40;6.00;;;;;;;-0.05;76.94;101332.44;6313464;22;20106;-87
2023/01/30 05:02:21;;;;;;;12.68;6.20;;;;;;;-0.16;76.90;101337.38;6315619;22;20009;-85
2023/01/30 05:04:49;;;;;;;12.85;6.10;;;;;;;-0.06;76.34;101328.06;6291764;22;20007;-84
2023/01/30 05:07:20;;;;;;;12.73;6.13;;;;;;;-0.17;76.64;101321.59;6260286;22;20514;-86
2023/01/30 05:09:46;;;;;;;13.38;6.32;;;;;;;-0.13;77.27;101333.72;6283497;22;20002;-84
2023/01/30 05:12:12;;;;;;;14.20;6.72;;;;;;;-0.34;77.53;101323.28;6308924;22;20085;-85
2023/01/30 05:14:42;;;;;;;12.68;6.35;;;;;;;-0.31;77.58;101330.19;6310292;22;20022;-87
2023/01/30 05:17:07;;;;;;;15.45;7.28;;;;;;;-0.22;78.08;101335.03;6311516;22;20015;-85
2023/01/30 05:19:35;;;;;;;14.67;7.20;;;;;;;-0.38;78.88;101312.94;6286477;22;20003;-84
2023/01/30 05:22:02;;;;;;;16.63;7.38;;;;;;;-0.28;79.36;101333.56;6289047;22;20018;-85
2023/01/30 05:24:30;;;;;;;15.60;6.82;;;;;;;-0.37;78.65;101326.06;6309336;22;20003;-84
2023/01/30 05:26:57;;;;;;;16.48;6.93;;;;;;;-0.35;79.24;101328.63;6307967;22;20110;-84
2023/01/30 05:29:23;;;;;;;16.88;7.07;;;;;;;-0.32;80.10;101339.91;6316527;22;20037;-82
2023/01/30 05:31:49;;;;;;;16.65;7.93;;;;;;;-0.40;79.94;101313.00;6296428;22;20010;-82
2023/01/30 05:34:14;;;;;;;15.47;7.53;;;;;;;-0.25;78.90;101322.81;6263072;22;20055;-84
2023/01/30 05:36:40;;;;;;;17.97;7.63;;;;;;;-0.11;78.48;101331.88;6285748;22;20344;-85
2023/01/30 05:39:07;;;;;;;18.63;9.23;;;;;;;-0.16;78.51;101318.03;6262087;22;20109;-87
2023/01/30 05:41:35;;;;;;;14.52;7.32;;;;;;;-0.06;78.85;101341.28;6280874;22;20522;-85
2023/01/30 05:44:05;;;;;;;17.25;8.40;;;;;;;-0.02;78.83;101339.34;6321352;22;20185;-84
2023/01/30 05:46:32;;;;;;;15.90;7.75;;;;;;;-0.06;78.51;101321.91;6331070;22;20003;-86
2023/01/30 05:49:03;;;;;;;15.95;7.95;;;;;;;0.04;78.27;101331.09;6312500;22;20026;-84
2023/01/30 05:51:28;;;;;;;18.00;7.85;;;;;;;-0.09;77.82;101322.06;6286732;22;20007;-84
2023/01/30 05:53:55;;;;;;;14.70;6.95;;;;;;;-0.07;77.63;101334.28;6287296;22;20007;-84
2023/01/30 05:56:22;;;;;;;15.60;6.88;;;;;;;0.03;76.86;101333.81;6308898;22;20010;-84
2023/01/30 05:58:54;;;;;;;15.73;7.22;;;;;;;0.17;76.37;101353.34;6285423;22;20015;-85
2023/01/30 06:01:20;;;;;;;14.50;7.57;;;;;;;0.19;75.65;101335.63;6289060;22;20014;-84
2023/01/30 06:03:46;;;;;;;15.95;7.30;;;;;;;0.20;75.34;101341.75;6316753;22;20011;-84
2023/01/30 06:06:14;;;;;;;12.10;6.95;;;;;;;0.33;74.91;101342.00;6287429;22;20002;-84
2023/01/30 06:08:41;;;;;;;16.45;7.68;;;;;;;0.19;74.87;101319.75;6262085;22;20030;-83
2023/01/30 06:11:08;;;;;;;17.92;8.10;;;;;;;0.14;75.60;101340.28;6257597;22;20006;-86
2023/01/30 06:13:37;;;;;;;13.57;7.57;;;;;;;0.17;75.44;101341.91;6309618;22;20003;-83
2023/01/30 06:16:04;;;;;;;23.42;7.97;;;;;;;0.12;75.64;101328.06;6310415;22;20052;-85
2023/01/30 06:18:29;;;;;;;22.65;8.43;;;;;;;0.19;75.78;101338.25;6322098;22;20013;-83
2023/01/30 06:20:55;;;;;;;17.60;8.95;;;;;;;0.25;75.92;101333.59;6315496;22;20003;-86
2023/01/30 06:23:25;;;;;;;17.65;8.73;;;;;;;0.30;75.50;101331.56;6273540;22;20010;-87
2023/01/30 06:25:52;;;;;;;18.08;8.98;;;;;;;0.29;75.33;101329.84;6322396;22;20020;-84
2023/01/30 06:28:22;;;;;;;19.13;8.90;;;;;;;0.12;75.58;101323.63;6328170;22;20010;-86
2023/01/30 06:30:49;;;;;;;21.65;9.30;;;;;;;0.22;75.74;101318.72;6306272;22;20066;-87
2023/01/30 06:33:16;;;;;;;19.65;10.35;;;;;;;0.13;76.11;101327.13;6359876;22;20005;-88
2023/01/30 06:35:44;;;;;;;19.73;9.02;;;;;;;0.21;76.53;101335.50;6335262;22;20017;-89
2023/01/30 06:38:56;;;;;;;22.05;10.02;;;;;;;0.29;76.25;101324.56;6318795;22;20010;-88
2023/01/30 06:41:45;;;;;;;24.60;10.55;;;;;;;0.22;76.60;101329.31;6322148;22;20079;-88
2023/01/30 06:44:13;;;;;;;27.85;10.85;;;;;;;0.37;76.10;101333.81;6274657;22;20015;-88
2023/01/30 06:46:50;;;;;;;24.10;11.40;;;;;;;0.18;75.56;101291.56;6269317;22;20033;-88
2023/01/30 06:49:20;;;;;;;26.95;10.13;;;;;;;0.10;75.46;101307.00;6324460;22;20018;-89
2023/01/30 06:52:28;;;;;;;19.02;9.40;;;;;;;0.23;75.46;101330.16;6297451;22;20014;-88
2023/01/30 06:54:59;;;;;;;20.17;9.73;;;;;;;0.13;75.76;101305.97;6282555;22;20000;-88
2023/01/30 06:57:27;;;;;;;21.27;10.15;;;;;;;0.27;75.66;101322.00;6274135;22;20011;-89
2023/01/30 06:59:56;;;;;;;18.30;9.98;;;;;;;0.38;75.73;101318.81;6290854;22;20050;-88
2023/01/30 07:02:29;;;;;;;28.17;11.00;;;;;;;0.38;75.79;101308.22;6296049;22;20030;-88
2023/01/30 07:05:16;;;;;;;24.33;10.60;;;;;;;0.34;76.20;101290.78;6305016;22;20003;-89
2023/01/30 07:07:50;;;;;;;20.25;10.20;;;;;;;0.45;75.52;101306.97;6326542;22;20011;-88
2023/01/30 07:10:17;;;;;;;20.88;9.60;;;;;;;0.46;75.25;101319.25;6298644;22;20049;-87
2023/01/30 07:12:46;;;;;;;24.40;9.88;;;;;;;0.56;75.44;101320.50;6324536;22;20002;-88
2023/01/30 07:15:23;;;;;;;26.30;11.27;;;;;;;0.50;75.16;101314.66;6299896;22;20093;-89
2023/01/30 07:17:53;;;;;;;25.77;11.73;;;;;;;0.36;75.68;101279.19;6300387;22;20027;-88
2023/01/30 07:20:21;;;;;;;27.45;10.77;;;;;;;0.63;74.93;101316.59;6299157;22;20007;-88
2023/01/30 07:22:52;;;;;;;27.75;11.18;;;;;;;0.60;74.55;101292.06;6327250;22;20003;-89
2023/01/30 07:25:41;;;;;;;27.98;11.85;;;;;;;0.65;74.72;101283.88;6304966;22;20006;-88
2023/01/30 07:28:31;;;;;;;29.48;11.68;;;;;;;0.84;74.82;101311.06;6321426;22;20007;-88
2023/01/30 07:31:02;;;;;;;25.70;11.57;;;;;;;0.69;74.85;101310.09;6327760;22;20013;-88
2023/01/30 07:34:01;;;;;;;22.08;11.82;;;;;;;0.78;74.49;101292.88;6304858;22;20017;-88
2023/01/30 07:36:47;;;;;;;26.15;12.15;;;;;;;0.79;74.67;101306.03;6341906;22;20019;-86
2023/01/30 07:39:24;;;;;;;22.77;11.65;;;;;;;0.94;74.72;101304.34;6360490;22;20002;-86
2023/01/30 07:41:54;;;;;;;24.80;11.98;;;;;;;0.94;74.18;101309.66;6332215;22;20022;-88
2023/01/30 07:44:53;;;;;;;26.23;11.48;;;;;;;0.65;75.14;101289.19;6332869;22;20002;-89
2023/01/30 07:47:25;;;;;;;30.80;10.65;;;;;;;0.67;75.19;101300.53;6358172;22;19998;-89
2023/01/30 07:50:23;;;;;;;21.10;10.35;;;;;;;0.38;74.60;101276.47;6330254;22;20015;-89
2023/01/30 07:53:03;;;;;;;21.77;9.88;;;;;;;0.46;74.68;101271.63;6327975;22;20036;-89
2023/01/30 07:55:32;;;;;;;21.92;9.90;;;;;;;0.55;74.75;101283.53;6358410;22;20010;-89
2023/01/30 07:58:06;;;;;;;23.58;10.38;;;;;;;0.74;74.72;101304.56;6283677;22;20007;-88
2023/01/30 08:00:46;;;;;;;18.77;9.25;;;;;;;0.72;74.26;101299.34;6359607;22;20003;-89
2023/01/30 08:03:33;;;;;;;20.02;9.35;;;;;;;0.68;73.97;101300.47;6304072;22;20017;-89
2023/01/30 08:06:07;;;;;;;20.15;8.32;;;;;;;0.39;73.67;101273.72;6333246;22;20097;-89
2023/01/30 08:08:38;;;;;;;19.65;9.05;;;;;;;0.44;74.16;101292.00;6304515;22;20699;-87
2023/01/30 08:11:07;;;;;;;21.23;8.63;;;;;;;0.50;73.68;101286.41;6333457;22;20002;-88
2023/01/30 08:13:39;;;;;;;18.50;7.72;;;;;;;0.74;73.30;101293.97;6326991;22;20011;-88
2023/01/30 08:16:57;;;;;;;21.13;7.85;;;;;;;0.76;72.35;101297.41;6310775;22;20043;-88
2023/01/30 08:19:42;;;;;;;15.82;8.18;;;;;;;0.51;72.60;101279.31;6336197;22;20045;-87
2023/01/30 08:22:10;;;;;;;18.90;7.68;;;;;;;0.54;72.02;101265.91;6353532;22;20041;-87
2023/01/30 08:24:47;;;;;;;17.20;7.78;;;;;;;0.74;71.22;101289.53;6285589;22;20009;-88
2023/01/30 08:27:36;;;;;;;17.92;8.10;;;;;;;0.70;71.37;101271.25;6362647;22;20050;-88
2023/01/30 08:30:28;;;;;;;17.42;8.45;;;;;;;0.75;71.53;101270.09;6357802;22;20021;-89
2023/01/30 08:33:14;;;;;;;18.80;8.18;;;;;;;0.76;71.00;101255.91;6331496;22;20029;-87
2023/01/30 08:35:42;;;;;;;17.13;7.75;;;;;;;0.84;70.77;101263.41;6300572;22;20002;-88
2023/01/30 08:38:29;;;;;;;21.20;7.35;;;;;;;1.01;70.57;101259.88;6305456;22;20011;-88
2023/01/30 08:41:16;;;;;;;16.25;7.00;;;;;;;1.31;69.58;101267.00;6356101;22;20444;-87
2023/01/30 08:44:50;;;;;;;21.13;7.57;;;;;;;1.48;69.37;101254.53;6358782;22;20007;-88
2023/01/30 08:47:19;;;;;;;15.05;7.35;;;;;;;1.56;68.67;101245.28;6330888;22;20421;-87
2023/01/30 08:50:07;;;;;;;16.55;7.22;;;;;;;1.52;68.69;101247.25;6330250;22;20018;-87
2023/01/30 08:52:53;;;;;;;15.50;7.28;;;;;;;1.45;68.17;101216.75;6332267;22;20007;-89
2023/01/30 08:55:31;;;;;;;19.05;7.70;;;;;;;1.61;68.09;101235.25;6339319;22;20005;-89
2023/01/30 08:57:59;;;;;;;25.40;10.65;;;;;;;1.93;67.37;101229.88;6333296;22;20058;-88
2023/01/30 09:00:36;;;;;;;24.17;9.82;;;;;;;1.98;67.58;101227.81;6311257;22;20009;-89
2023/01/30 09:03:30;;;;;;;15.95;8.25;;;;;;;2.37;66.72;101221.03;6304153;22;20011;-90
2023/01/30 09:05:58;;;;;;;16.48;8.00;;;;;;;2.76;65.46;101220.31;6363529;22;20003;-90
2023/01/30 09:08:47;;;;;;;18.08;7.72;;;;;;;2.92;64.49;101214.91;6338997;22;20030;-89
2023/01/30 09:11:15;;;;;;;20.92;8.20;;;;;;;2.83;64.53;101187.13;6309337;22;20055;-90
2023/01/30 09:13:44;;;;;;;17.02;8.23;;;;;;;3.31;63.94;101197.34;6356465;22;20011;-90
2023/01/30 09:16:38;;;;;;;22.15;9.23;;;;;;;3.61;62.24;101167.00;6297780;22;20018;-87
2023/01/30 09:22:34;;;;;;;23.58;9.25;;;;;;;5.18;58.54;101186.94;6393589;22;20030;-89
2023/01/30 09:25:22;;;;;;;27.65;10.45;;;;;;;6.87;53.35;101165.88;6383267;22;19998;-91
2023/01/30 09:27:49;;;;;;;29.33;11.60;;;;;;;10.53;45.96;101144.16;6328830;22;20436;-87
2023/01/30 09:30:18;;;;;;;21.65;9.65;;;;;;;13.77;36.48;101142.09;6321132;22;20010;-86
2023/01/30 09:32:48;;;;;;;25.25;9.90;;;;;;;15.18;33.90;101145.00;6359227;22;20014;-87
2023/01/30 09:35:19;;;;;;;22.48;9.82;;;;;;;14.28;34.11;101150.78;6395913;22;20016;-88
2023/01/30 09:37:53;;;;;;;19.58;8.57;;;;;;;12.62;35.61;101144.59;6363204;22;20002;-90
2023/01/30 09:40:29;;;;;;;18.48;8.93;;;;;;;11.70;37.81;101127.16;6386793;22;20070;-90
2023/01/30 09:43:18;;;;;;;22.75;10.35;;;;;;;10.58;39.96;101131.09;6385492;22;19998;-88
2023/01/30 09:46:15;;;;;;;25.15;10.52;;;;;;;10.12;41.80;101148.94;6384758;22;20006;-88
2023/01/30 09:49:02;;;;;;;25.65;11.25;;;;;;;9.86;42.56;101146.06;6393595;22;20014;-89
2023/01/30 09:51:57;;;;;;;24.48;11.02;;;;;;;10.18;42.60;101140.28;6369623;22;20003;-89
2023/01/30 09:54:34;;;;;;;22.90;10.50;;;;;;;10.30;42.21;101124.88;6354570;22;20007;-88
2023/01/30 09:57:10;;;;;;;19.33;10.38;;;;;;;11.60;40.27;101114.63;6381538;22;20003;-88
2023/01/30 09:59:57;;;;;;;21.38;11.15;;;;;;;13.90;35.03;101123.47;6384746;22;20067;-87
2023/01/30 10:02:53;;;;;;;18.00;10.35;;;;;;;15.91;31.55;101108.31;6379290;22;20002;-89
2023/01/30 10:05:24;;;;;;;15.45;9.75;;;;;;;14.34;33.22;101109.53;6380833;22;20081;-87
2023/01/30 10:08:12;;;;;;;16.60;10.82;;;;;;;15.34;32.14;101101.53;6359294;22;20023;-87
2023/01/30 10:10:58;;;;;;;20.00;11.02;;;;;;;14.40;33.04;101079.06;6385575;22;19994;-89
2023/01/30 10:14:01;;;;;;;17.75;11.05;;;;;;;15.45;31.78;101085.84;6358570;22;20079;-89
2023/01/30 10:17:17;;;;;;;19.23;11.02;;;;;;;16.11;30.45;101075.22;6364708;22;20067;-88
2023/01/30 10:20:42;;;;;;;22.63;15.38;;;;;;;15.24;31.74;101071.16;6388890;22;20020;-88
2023/01/30 10:23:17;;;;;;;18.88;11.80;;;;;;;14.62;33.15;101063.09;6230163;23;20011;-89
2023/01/30 10:25:54;;;;;;;19.05;12.23;;;;;;;14.29;33.21;101064.06;6264777;22;20008;-88
2023/01/30 10:28:28;;;;;;;16.08;10.38;;;;;;;14.87;32.96;101061.94;6292646;22;20006;-89
2023/01/30 10:31:15;;;;;;;17.13;9.40;;;;;;;15.58;31.64;101034.59;6384266;22;20062;-89
2023/01/30 10:34:15;;;;;;;15.85;8.23;;;;;;;17.87;28.64;101050.34;6357085;22;20021;-87
2023/01/30 10:37:12;;;;;;;17.70;8.52;;;;;;;19.01;26.18;101010.81;6378265;22;20002;-87
2023/01/30 10:40:04;;;;;;;13.15;7.40;;;;;;;19.39;25.17;101021.94;6382906;22;20032;-87
2023/01/30 10:42:54;;;;;;;17.90;9.50;;;;;;;21.44;22.93;101024.00;6297053;22;20010;-89
2023/01/30 10:45:36;;;;;;;13.55;8.98;;;;;;;20.96;22.83;101010.91;6347953;22;20018;-88
2023/01/30 10:48:21;;;;;;;15.65;8.00;;;;;;;22.48;21.23;101007.72;6352440;22;20136;-91
2023/01/30 10:51:33;;;;;;;11.02;8.35;;;;;;;22.40;21.43;100988.84;6380690;22;20403;-89
2023/01/30 10:54:30;;;;;;;12.98;8.25;;;;;;;22.11;21.08;101002.25;6356772;22;20010;-89
2023/01/30 10:57:09;;;;;;;11.30;7.85;;;;;;;22.49;20.71;100992.13;6387081;22;20029;-88
2023/01/30 10:59:55;;;;;;;12.35;7.80;;;;;;;22.94;20.14;100978.81;6360729;22;20054;-87
2023/01/30 11:02:43;;;;;;;13.07;8.88;;;;;;;22.85;19.87;100980.22;6360113;22;20002;-89
2023/01/30 11:05:25;;;;;;;10.95;8.07;;;;;;;23.58;18.93;100972.69;6358124;22;20025;-88
2023/01/30 11:07:57;;;;;;;13.52;8.73;;;;;;;22.12;20.98;100948.34;6362144;22;19997;-88
2023/01/30 11:10:27;;;;;;;13.77;8.90;;;;;;;20.61;22.35;100966.81;6356714;22;20002;-89
2023/01/30 11:13:00;;;;;;;14.45;9.82;;;;;;;19.88;23.27;100962.50;6360365;22;20018;-89
2023/01/30 11:15:50;;;;;;;15.20;9.75;;;;;;;18.92;24.48;100960.31;6334809;22;20180;-90
2023/01/30 11:18:21;;;;;;;13.65;9.75;;;;;;;16.79;26.93;100953.75;6364482;22;20014;-90
2023/01/30 11:21:29;;;;;;;15.48;9.98;;;;;;;17.27;27.04;100940.34;6343291;22;20050;-88
2023/01/30 11:23:56;;;;;;;12.70;9.93;;;;;;;17.35;27.41;100926.63;6340370;22;20045;-87
2023/01/30 11:26:30;;;;;;;16.98;10.82;;;;;;;16.49;28.82;100921.25;6337881;22;20050;-86
2023/01/30 11:28:59;;;;;;;13.93;10.18;;;;;;;17.54;27.72;100924.22;6314184;22;20034;-88
2023/01/30 11:31:28;;;;;;;16.30;10.63;;;;;;;18.05;26.75;100918.41;6288143;22;20015;-87
2023/01/30 11:34:06;;;;;;;14.38;10.48;;;;;;;17.29;27.52;100930.13;6345735;22;20316;-84
2023/01/30 11:36:38;;;;;;;15.15;10.75;;;;;;;16.28;29.22;100921.25;6360361;22;20010;-86
2023/01/30 11:46:08;;;;;;;12.25;7.50;;;;;;;11.08;35.73;100891.19;6319906;22;20089;-89
2023/01/30 11:49:29;;;;;;;10.77;7.28;;;;;;;10.03;38.17;100926.88;6322705;22;20023;-89
2023/01/30 11:52:27;;;;;;;15.10;7.22;;;;;;;8.81;40.41;100902.75;6346675;22;20041;-91
2023/01/30 11:55:18;;;;;;;15.32;7.50;;;;;;;8.14;42.06;100899.06;6311028;22;20002;-91
2023/01/30 11:58:11;;;;;;;14.70;7.32;;;;;;;7.52;43.87;100888.50;6358925;22;20011;-89
2023/01/30 12:03:33;;;;;;;16.73;7.55;;;;;;;6.83;46.79;100874.94;6358203;22;20143;-90
2023/01/30 12:06:32;;;;;;;12.68;6.85;;;;;;;6.62;47.06;100848.22;6359027;22;20015;-91
2023/01/30 12:10:03;;;;;;;11.35;5.85;;;;;;;6.58;47.79;100894.88;6359842;22;19998;-91
2023/01/30 12:12:53;;;;;;;11.82;6.28;;;;;;;6.48;47.63;100850.22;6337651;22;20062;-93
2023/01/30 12:15:30;;;;;;;14.27;6.43;;;;;;;7.48;45.72;100854.13;6357339;22;20017;-89
2023/01/30 12:18:18;;;;;;;16.23;7.03;;;;;;;8.71;42.84;100875.09;6330573;22;20011;-89